createdAt,value
2022-10-07T00:02:00.925Z,11.50
2022-10-07T00:04:51.713Z,11.50
2022-10-07T00:07:41.266Z,11.50
2022-10-07T00:10:31.009Z,11.40
2022-10-07T00:13:20.399Z,11.40
2022-10-07T00:16:13.198Z,11.40
2022-10-07T00:19:05.297Z,11.40
2022-10-07T00:21:56.081Z,11.40
2022-10-07T00:24:45.785Z,11.40
2022-10-07T00:27:35.147Z,11.40
2022-10-07T00:30:24.542Z,11.40
2022-10-07T00:33:13.927Z,11.40
2022-10-07T00:36:08.017Z,11.40
2022-10-07T00:39:01.128Z,11.30
2022-10-07T00:41:53.163Z,11.30
2022-10-07T00:44:45.120Z,11.30
2022-10-07T00:47:36.179Z,11.30
2022-10-07T00:50:29.493Z,11.30
2022-10-07T00:53:19.555Z,11.30
2022-10-07T00:56:12.052Z,11.30
2022-10-07T00:59:01.479Z,11.30
2022-10-07T01:01:52.203Z,11.20
2022-10-07T01:04:43.040Z,11.20
2022-10-07T01:07:33.612Z,11.20
2022-10-07T01:10:24.436Z,11.20
2022-10-07T01:13:27.909Z,11.20
2022-10-07T01:16:24.376Z,11.20
2022-10-07T01:19:37.012Z,11.20
2022-10-07T01:22:38.306Z,11.20
2022-10-07T01:25:45.395Z,11.20
2022-10-07T01:28:40.911Z,11.20
2022-10-07T01:31:37.944Z,11.20
2022-10-07T01:34:28.746Z,11.20
2022-10-07T01:37:20.158Z,11.20
2022-10-07T01:40:15.327Z,11.20
2022-10-07T01:43:04.765Z,11.20
2022-10-07T01:45:56.658Z,11.20
2022-10-07T01:48:47.094Z,11.20
2022-10-07T01:51:40.372Z,11.20
2022-10-07T01:54:42.816Z,11.20
2022-10-07T01:57:44.058Z,11.20
2022-10-07T02:00:36.460Z,11.20
2022-10-07T02:03:44.546Z,11.20
2022-10-07T02:06:44.462Z,11.20
2022-10-07T02:09:39.625Z,11.20
2022-10-07T02:12:41.300Z,11.20
2022-10-07T02:15:37.813Z,11.30
2022-10-07T02:18:32.459Z,11.20
2022-10-07T02:21:28.744Z,11.30
2022-10-07T02:24:21.717Z,11.30
2022-10-07T02:27:15.094Z,11.30
2022-10-07T02:30:11.710Z,11.30
2022-10-07T02:33:04.337Z,11.30
2022-10-07T02:36:00.303Z,11.20
2022-10-07T02:38:49.883Z,11.30
2022-10-07T02:41:47.308Z,11.30
2022-10-07T02:44:50.063Z,11.20
2022-10-07T02:47:48.006Z,11.20
2022-10-07T02:50:42.386Z,11.20
2022-10-07T02:53:36.085Z,11.20
2022-10-07T02:56:27.770Z,11.20
2022-10-07T02:59:18.992Z,11.20
2022-10-07T03:02:14.121Z,11.20
2022-10-07T03:05:03.643Z,11.20
2022-10-07T03:07:57.988Z,11.20
2022-10-07T03:10:49.042Z,11.20
2022-10-07T03:13:38.471Z,11.20
2022-10-07T03:16:27.895Z,11.20
2022-10-07T03:19:17.290Z,11.20
2022-10-07T03:22:16.302Z,11.20
2022-10-07T03:25:07.369Z,11.10
2022-10-07T03:27:58.310Z,11.10
2022-10-07T03:30:48.232Z,11.10
2022-10-07T03:33:38.306Z,11.10
2022-10-07T03:36:29.900Z,11.10
2022-10-07T03:39:19.324Z,11.10
2022-10-07T03:42:09.726Z,11.10
2022-10-07T03:45:00.978Z,11.10
2022-10-07T03:47:51.022Z,11.10
2022-10-07T03:50:40.364Z,11.10
2022-10-07T03:53:30.435Z,11.10
2022-10-07T03:56:22.228Z,11.10
2022-10-07T03:59:11.892Z,11.00
2022-10-07T04:02:02.696Z,11.10
2022-10-07T04:04:52.652Z,11.10
2022-10-07T04:07:44.041Z,11.00
2022-10-07T04:10:34.867Z,11.00
2022-10-07T04:13:24.373Z,11.00
2022-10-07T04:16:15.426Z,11.00
2022-10-07T04:19:07.254Z,11.00
2022-10-07T04:21:56.852Z,11.00
2022-10-07T04:25:06.776Z,11.00
2022-10-07T04:27:58.418Z,10.90
2022-10-07T04:30:51.532Z,10.90
2022-10-07T04:33:44.391Z,10.90
2022-10-07T04:36:38.007Z,10.90
2022-10-07T04:39:59.164Z,10.90
2022-10-07T04:43:05.208Z,10.80
2022-10-07T04:46:01.019Z,10.80
2022-10-07T04:48:50.463Z,10.80
2022-10-07T04:51:45.989Z,10.80
2022-10-07T04:54:36.143Z,10.80
2022-10-07T04:57:25.673Z,10.80
2022-10-07T05:00:15.589Z,10.70
2022-10-07T05:03:05.263Z,10.70
2022-10-07T05:05:56.932Z,10.70
2022-10-07T05:08:49.908Z,10.70
2022-10-07T05:11:39.289Z,10.70
2022-10-07T05:14:34.168Z,10.70
2022-10-07T05:17:25.743Z,10.70
2022-10-07T05:20:15.136Z,10.60
2022-10-07T05:23:05.121Z,10.70
2022-10-07T05:26:01.983Z,10.70
2022-10-07T05:28:52.599Z,10.60
2022-10-07T05:31:49.242Z,10.70
2022-10-07T05:34:41.376Z,10.70
2022-10-07T05:37:32.367Z,10.70
2022-10-07T05:40:22.488Z,10.70
2022-10-07T05:43:14.229Z,10.80
2022-10-07T05:46:06.277Z,10.80
2022-10-07T05:48:59.291Z,10.80
2022-10-07T05:51:54.225Z,11.00
2022-10-07T05:54:43.529Z,11.20
2022-10-07T05:57:34.900Z,11.50
2022-10-07T06:00:26.090Z,12.00
2022-10-07T06:03:15.484Z,12.40
2022-10-07T06:06:05.315Z,12.90
2022-10-07T06:09:15.261Z,13.50
2022-10-07T06:12:22.662Z,14.10
2022-10-07T06:15:14.346Z,14.70
2022-10-07T06:18:08.178Z,15.30
2022-10-07T06:20:58.420Z,15.80
2022-10-07T06:23:52.907Z,16.30
2022-10-07T06:26:45.758Z,16.80
2022-10-07T06:29:35.116Z,17.20
2022-10-07T06:32:24.889Z,17.70
2022-10-07T06:35:15.788Z,18.10
2022-10-07T06:38:07.327Z,18.50
2022-10-07T06:40:59.015Z,19.00
2022-10-07T06:43:50.981Z,19.40
2022-10-07T06:46:41.178Z,19.90
2022-10-07T06:49:31.223Z,20.30
2022-10-07T06:52:22.820Z,20.80
2022-10-07T06:55:12.282Z,21.20
2022-10-07T06:58:05.101Z,21.60
2022-10-07T07:00:59.625Z,22.00
2022-10-07T07:03:49.402Z,22.40
2022-10-07T07:06:39.119Z,22.70
2022-10-07T07:09:33.655Z,22.90
2022-10-07T07:12:25.462Z,23.20
2022-10-07T07:15:17.028Z,23.50
2022-10-07T07:18:08.840Z,23.90
2022-10-07T07:21:04.866Z,24.30
2022-10-07T07:23:54.861Z,24.70
2022-10-07T07:26:46.549Z,24.90
2022-10-07T07:29:35.976Z,25.20
2022-10-07T07:32:25.705Z,25.40
2022-10-07T07:35:15.405Z,25.60
2022-10-07T07:38:05.144Z,25.90
2022-10-07T07:40:55.088Z,26.20
2022-10-07T07:43:50.529Z,26.50
2022-10-07T07:46:43.420Z,26.80
2022-10-07T07:49:34.331Z,27.10
2022-10-07T07:52:25.429Z,27.40
2022-10-07T07:55:16.129Z,27.60
2022-10-07T07:58:09.670Z,27.70
2022-10-07T08:01:06.091Z,27.90
2022-10-07T08:03:56.217Z,28.00
2022-10-07T08:06:45.706Z,28.10
2022-10-07T08:09:35.226Z,28.30
2022-10-07T08:12:25.016Z,28.40
2022-10-07T08:15:16.726Z,28.50
2022-10-07T08:18:08.731Z,28.70
2022-10-07T08:20:59.331Z,28.90
2022-10-07T08:23:53.696Z,29.10
2022-10-07T08:26:43.117Z,29.30
2022-10-07T08:29:35.027Z,29.40
2022-10-07T08:32:24.438Z,29.70
2022-10-07T08:35:15.303Z,29.90
2022-10-07T08:38:04.698Z,30.10
2022-10-07T08:40:54.950Z,30.40
2022-10-07T08:43:47.911Z,30.60
2022-10-07T08:46:39.918Z,30.70
2022-10-07T08:49:40.871Z,30.80
2022-10-07T08:52:48.741Z,30.90
2022-10-07T08:55:43.847Z,31.10
2022-10-07T08:59:00.695Z,31.20
2022-10-07T09:02:08.266Z,31.50
2022-10-07T09:05:06.684Z,31.80
2022-10-07T09:08:02.029Z,32.10
2022-10-07T09:10:53.488Z,32.40
2022-10-07T09:13:48.383Z,32.70
2022-10-07T09:16:44.733Z,33.00
2022-10-07T09:19:38.337Z,33.30
2022-10-07T09:22:34.295Z,33.60
2022-10-07T09:25:28.435Z,33.70
2022-10-07T09:28:20.931Z,33.90
2022-10-07T09:31:16.292Z,34.00
2022-10-07T09:34:05.729Z,34.10
2022-10-07T09:37:16.966Z,34.20
2022-10-07T09:40:31.761Z,34.30
2022-10-07T09:43:21.259Z,34.50
2022-10-07T09:46:37.412Z,34.70
2022-10-07T09:49:42.197Z,35.00
2022-10-07T09:52:33.210Z,35.20
2022-10-07T09:55:37.857Z,35.40
2022-10-07T09:58:29.981Z,35.70
2022-10-07T10:01:19.511Z,35.90
2022-10-07T10:04:17.691Z,35.90
2022-10-07T10:07:19.191Z,36.00
2022-10-07T10:10:23.816Z,36.00
2022-10-07T10:13:31.076Z,36.00
2022-10-07T10:16:36.231Z,36.00
2022-10-07T10:19:27.913Z,36.00
2022-10-07T10:22:27.769Z,36.10
2022-10-07T10:25:48.357Z,36.10
2022-10-07T10:28:47.185Z,36.10
2022-10-07T10:31:59.774Z,36.10
2022-10-07T10:34:57.462Z,36.00
2022-10-07T10:38:25.406Z,35.90
2022-10-07T10:41:28.265Z,35.70
2022-10-07T10:44:36.817Z,35.60
2022-10-07T10:47:39.384Z,35.60
2022-10-07T10:50:38.247Z,35.60
2022-10-07T10:53:40.512Z,35.70
2022-10-07T10:56:41.702Z,35.80
2022-10-07T10:59:55.499Z,35.90
2022-10-07T11:03:42.041Z,36.10
2022-10-07T11:06:34.242Z,36.10
2022-10-07T11:09:36.789Z,36.20
2022-10-07T11:12:31.513Z,36.20
2022-10-07T11:15:28.063Z,36.20
2022-10-07T11:18:29.759Z,36.20
2022-10-07T11:21:26.502Z,36.10
2022-10-07T11:24:21.838Z,35.80
2022-10-07T11:27:17.968Z,35.30
2022-10-07T11:30:17.516Z,34.80
2022-10-07T11:33:14.605Z,34.30
2022-10-07T11:36:10.745Z,33.70
2022-10-07T11:39:00.528Z,33.10
2022-10-07T11:41:56.656Z,32.50
2022-10-07T11:44:55.362Z,31.80
2022-10-07T11:47:51.781Z,31.30
2022-10-07T11:50:49.466Z,30.80
2022-10-07T11:53:41.338Z,30.30
2022-10-07T11:56:38.688Z,29.80
2022-10-07T11:59:46.038Z,29.40
2022-10-07T12:02:43.898Z,29.00
2022-10-07T12:06:12.178Z,28.60
2022-10-07T12:09:53.657Z,28.30
2022-10-07T12:12:52.075Z,28.00
2022-10-07T12:15:43.123Z,27.70
2022-10-07T12:18:36.751Z,27.50
2022-10-07T12:21:31.214Z,27.20
2022-10-07T12:24:20.527Z,27.00
2022-10-07T12:27:18.321Z,26.90
2022-10-07T12:30:43.489Z,26.70
2022-10-07T12:33:37.711Z,26.50
2022-10-07T12:36:31.119Z,26.30
2022-10-07T12:39:36.984Z,26.20
2022-10-07T12:42:26.833Z,26.00
2022-10-07T12:45:17.300Z,25.90
2022-10-07T12:48:08.274Z,25.70
2022-10-07T12:50:58.206Z,25.60
2022-10-07T12:53:50.573Z,25.50
2022-10-07T12:56:44.612Z,25.40
2022-10-07T12:59:47.542Z,25.20
2022-10-07T13:03:22.141Z,25.20
2022-10-07T13:07:17.399Z,25.00
2022-10-07T13:10:57.600Z,24.90
2022-10-07T13:13:55.297Z,24.80
2022-10-07T13:16:52.045Z,24.70
2022-10-07T13:19:50.090Z,24.60
2022-10-07T13:22:46.766Z,24.60
2022-10-07T13:25:46.003Z,24.50
2022-10-07T13:28:46.622Z,24.50
2022-10-07T13:31:36.314Z,24.40
2022-10-07T13:34:26.146Z,24.40
2022-10-07T13:37:32.337Z,24.30
2022-10-07T13:40:26.739Z,24.20
2022-10-07T13:43:17.457Z,24.20
2022-10-07T13:46:10.811Z,24.00
2022-10-07T13:49:01.106Z,24.00
2022-10-07T13:51:55.477Z,24.00
2022-10-07T13:54:52.223Z,23.90
2022-10-07T13:57:44.345Z,23.90
2022-10-07T14:00:42.303Z,23.80
2022-10-07T14:03:31.654Z,23.70
2022-10-07T14:06:49.547Z,23.70
2022-10-07T14:09:50.346Z,23.60
2022-10-07T14:12:43.977Z,23.60
2022-10-07T14:15:38.144Z,23.50
2022-10-07T14:18:29.830Z,23.50
2022-10-07T14:21:19.229Z,23.40
2022-10-07T14:24:11.633Z,23.30
2022-10-07T14:27:00.958Z,23.30
2022-10-07T14:29:50.237Z,23.20
2022-10-07T14:32:59.987Z,23.10
2022-10-07T14:35:50.961Z,23.10
2022-10-07T14:38:41.190Z,23.10
2022-10-07T14:41:31.809Z,23.00
2022-10-07T14:44:21.816Z,22.90
2022-10-07T14:47:15.111Z,22.80
2022-10-07T14:50:07.126Z,22.80
2022-10-07T14:52:56.673Z,22.80
2022-10-07T14:55:45.974Z,22.80
2022-10-07T14:58:35.329Z,22.80
2022-10-07T15:01:25.034Z,22.80
2022-10-07T15:04:14.497Z,22.80
2022-10-07T15:07:05.310Z,22.80
2022-10-07T15:09:54.727Z,22.80
2022-10-07T15:12:45.029Z,22.80
2022-10-07T15:15:34.599Z,22.70
2022-10-07T15:18:23.897Z,22.70
2022-10-07T15:21:13.753Z,22.70
2022-10-07T15:24:04.969Z,22.60
2022-10-07T15:26:54.300Z,22.60
2022-10-07T15:29:43.594Z,22.50
2022-10-07T15:32:32.911Z,22.40
2022-10-07T15:35:22.289Z,22.30
2022-10-07T15:38:11.654Z,22.30
2022-10-07T15:41:03.378Z,22.20
2022-10-07T15:43:52.965Z,22.10
2022-10-07T15:46:42.464Z,22.00
2022-10-07T15:49:32.277Z,22.00
2022-10-07T15:52:21.621Z,21.90
2022-10-07T15:55:11.307Z,21.80
2022-10-07T15:58:02.015Z,21.70
2022-10-07T16:01:01.739Z,21.70
2022-10-07T16:03:51.211Z,21.60
2022-10-07T16:06:40.941Z,21.60
2022-10-07T16:09:30.519Z,21.50
2022-10-07T16:12:19.886Z,21.50
2022-10-07T16:15:11.678Z,21.50
2022-10-07T16:18:01.153Z,21.50
2022-10-07T16:20:50.526Z,21.40
2022-10-07T16:23:45.398Z,21.40
2022-10-07T16:26:37.330Z,21.40
2022-10-07T16:29:44.512Z,21.40
2022-10-07T16:32:35.224Z,21.40
2022-10-07T16:35:24.551Z,21.40
2022-10-07T16:38:13.889Z,21.40
2022-10-07T16:41:03.389Z,21.40
2022-10-07T16:43:53.279Z,21.40
2022-10-07T16:46:43.102Z,21.30
2022-10-07T16:49:36.368Z,21.30
2022-10-07T16:52:26.308Z,21.30
2022-10-07T16:55:16.343Z,21.20
2022-10-07T16:58:05.737Z,21.20
2022-10-07T17:01:02.544Z,21.20
2022-10-07T17:03:51.916Z,21.20
2022-10-07T17:06:43.962Z,21.10
2022-10-07T17:09:33.362Z,21.00
2022-10-07T17:12:24.429Z,21.00
2022-10-07T17:15:15.191Z,20.90
2022-10-07T17:18:04.625Z,20.80
2022-10-07T17:20:55.306Z,20.70
2022-10-07T17:23:46.414Z,20.70
2022-10-07T17:26:36.145Z,20.60
2022-10-07T17:29:27.093Z,20.50
2022-10-07T17:32:16.705Z,20.40
2022-10-07T17:35:08.472Z,20.30
2022-10-07T17:37:59.194Z,20.10
2022-10-07T17:40:49.912Z,20.00
2022-10-07T17:43:42.060Z,19.90
2022-10-07T17:46:34.574Z,19.80
2022-10-07T17:49:24.005Z,19.70
2022-10-07T17:52:13.674Z,19.60
2022-10-07T17:55:04.470Z,19.50
2022-10-07T17:57:55.339Z,19.40
2022-10-07T18:00:45.278Z,19.30
2022-10-07T18:03:34.714Z,19.20
2022-10-07T18:06:24.885Z,19.10
2022-10-07T18:09:18.702Z,19.00
2022-10-07T18:12:25.501Z,18.90
2022-10-07T18:15:23.278Z,18.80
2022-10-07T18:18:12.638Z,18.80
2022-10-07T18:21:06.838Z,18.70
2022-10-07T18:23:57.554Z,18.60
2022-10-07T18:26:46.867Z,18.50
2022-10-07T18:29:38.336Z,18.50
2022-10-07T18:32:32.769Z,18.40
2022-10-07T18:35:22.148Z,18.40
2022-10-07T18:38:11.579Z,18.30
2022-10-07T18:41:02.624Z,18.20
2022-10-07T18:43:56.792Z,18.20
2022-10-07T18:46:46.505Z,18.10
2022-10-07T18:49:37.325Z,18.00
2022-10-07T18:52:26.757Z,18.00
2022-10-07T18:55:16.206Z,17.90
2022-10-07T18:58:05.562Z,17.90
2022-10-07T19:00:55.009Z,17.80
2022-10-07T19:03:45.348Z,17.80
2022-10-07T19:06:38.927Z,17.70
2022-10-07T19:09:28.582Z,17.70
2022-10-07T19:12:35.469Z,17.60
2022-10-07T19:15:24.817Z,17.50
2022-10-07T19:18:14.188Z,17.50
2022-10-07T19:21:04.081Z,17.50
2022-10-07T19:23:58.399Z,17.40
2022-10-07T19:26:50.439Z,17.30
2022-10-07T19:29:39.827Z,17.30
2022-10-07T19:32:29.190Z,17.30
2022-10-07T19:35:18.538Z,17.30
2022-10-07T19:38:08.141Z,17.30
2022-10-07T19:40:58.865Z,17.30
2022-10-07T19:43:49.085Z,17.20
2022-10-07T19:46:38.917Z,17.20
2022-10-07T19:49:28.535Z,17.20
2022-10-07T19:52:18.032Z,17.20
2022-10-07T19:55:08.925Z,17.20
2022-10-07T19:58:01.824Z,17.20
2022-10-07T20:00:51.233Z,17.20
2022-10-07T20:03:40.631Z,17.10
2022-10-07T20:06:30.893Z,17.10
2022-10-07T20:09:20.801Z,17.10
2022-10-07T20:12:10.129Z,17.10
2022-10-07T20:15:01.158Z,17.10
2022-10-07T20:17:50.541Z,17.10
2022-10-07T20:20:40.091Z,17.00
2022-10-07T20:23:34.175Z,17.00
2022-10-07T20:26:26.651Z,17.00
2022-10-07T20:29:16.915Z,17.00
2022-10-07T20:32:08.873Z,17.00
2022-10-07T20:34:58.847Z,16.90
2022-10-07T20:37:48.365Z,16.90
2022-10-07T20:40:55.267Z,16.90
2022-10-07T20:43:44.819Z,16.90
2022-10-07T20:46:34.545Z,16.90
2022-10-07T20:49:29.954Z,16.80
2022-10-07T20:52:21.694Z,16.80
2022-10-07T20:55:14.231Z,16.80
2022-10-07T20:58:05.141Z,16.70
2022-10-07T21:00:54.656Z,16.70
2022-10-07T21:03:44.106Z,16.70
2022-10-07T21:06:34.926Z,16.70
2022-10-07T21:09:25.127Z,16.60
2022-10-07T21:12:18.441Z,16.60
2022-10-07T21:15:08.894Z,16.60
2022-10-07T21:17:58.642Z,16.50
2022-10-07T21:20:56.549Z,16.50
2022-10-07T21:23:49.171Z,16.50
2022-10-07T21:26:38.700Z,16.40
2022-10-07T21:29:29.917Z,16.40
2022-10-07T21:32:19.542Z,16.40
2022-10-07T21:35:09.984Z,16.40
2022-10-07T21:37:59.316Z,16.30
2022-10-07T21:40:50.283Z,16.30
2022-10-07T21:43:39.606Z,16.30
2022-10-07T21:46:31.285Z,16.20
2022-10-07T21:49:20.609Z,16.20
2022-10-07T21:52:09.960Z,16.20
2022-10-07T21:54:59.253Z,16.10
2022-10-07T21:57:49.898Z,16.10
2022-10-07T22:00:41.008Z,16.10
2022-10-07T22:03:30.361Z,16.10
2022-10-07T22:06:19.734Z,16.00
2022-10-07T22:09:08.477Z,16.00
2022-10-07T22:11:58.725Z,16.00
2022-10-07T22:14:49.499Z,15.90
2022-10-07T22:17:38.807Z,15.90
2022-10-07T22:20:28.180Z,15.90
2022-10-07T22:23:17.761Z,15.80
2022-10-07T22:26:09.841Z,15.80
2022-10-07T22:28:59.176Z,15.80
2022-10-07T22:31:50.223Z,15.80
2022-10-07T22:34:57.035Z,15.80
2022-10-07T22:37:46.336Z,15.80
2022-10-07T22:40:38.661Z,15.80
2022-10-07T22:43:27.992Z,15.80
2022-10-07T22:46:19.782Z,15.80
2022-10-07T22:49:10.502Z,15.80
2022-10-07T22:52:00.541Z,15.80
2022-10-07T22:54:49.811Z,15.80
2022-10-07T22:57:39.141Z,15.80
2022-10-07T23:00:28.519Z,15.80
2022-10-07T23:03:17.957Z,15.80
2022-10-07T23:06:09.107Z,15.80
2022-10-07T23:08:58.405Z,15.80
2022-10-07T23:11:47.743Z,15.70
2022-10-07T23:14:37.112Z,15.70
2022-10-07T23:17:26.843Z,15.70
2022-10-07T23:20:16.361Z,15.60
2022-10-07T23:23:07.053Z,15.60
2022-10-07T23:25:56.549Z,15.50
2022-10-07T23:28:46.097Z,15.50
2022-10-07T23:31:35.859Z,15.50
2022-10-07T23:34:25.443Z,15.40
2022-10-07T23:37:15.083Z,15.40
2022-10-07T23:40:07.283Z,15.40
2022-10-07T23:42:56.653Z,15.40
2022-10-07T23:45:47.302Z,15.30
2022-10-07T23:48:36.602Z,15.30
2022-10-07T23:51:27.882Z,15.30
2022-10-07T23:54:17.329Z,15.30
2022-10-07T23:57:08.025Z,15.30
2022-10-07T23:59:57.400Z,15.30
